createdAt,value
2018-09-30T00:00:51.852Z,944.88
2018-09-30T00:01:59.923Z,944.91
2018-09-30T00:03:08.127Z,944.88
2018-09-30T00:04:16.038Z,944.94
2018-09-30T00:05:24.097Z,944.90
2018-09-30T00:06:32.156Z,944.88
2018-09-30T00:07:40.226Z,944.88
2018-09-30T00:08:48.371Z,944.86
2018-09-30T00:09:56.444Z,944.88
2018-09-30T00:11:04.416Z,944.89
2018-09-30T00:12:12.461Z,944.86
2018-09-30T00:13:20.519Z,944.85
2018-09-30T00:14:30.713Z,944.81
2018-09-30T00:15:38.658Z,944.80
2018-09-30T00:16:46.732Z,944.81
2018-09-30T00:17:54.797Z,944.81
2018-09-30T00:19:02.839Z,944.82
2018-09-30T00:20:11.020Z,944.88
2018-09-30T00:21:19.015Z,944.84
2018-09-30T00:22:27.046Z,944.83
2018-09-30T00:23:35.115Z,944.80
2018-09-30T00:24:43.141Z,944.84
2018-09-30T00:25:51.319Z,944.81
2018-09-30T00:26:59.298Z,944.78
2018-09-30T00:28:07.341Z,944.79
2018-09-30T00:29:15.420Z,944.74
2018-09-30T00:30:23.461Z,944.81
2018-09-30T00:31:31.624Z,944.81
2018-09-30T00:32:39.594Z,944.79
2018-09-30T00:33:47.656Z,944.80
2018-09-30T00:34:55.710Z,944.77
2018-09-30T00:36:03.778Z,944.75
2018-09-30T00:37:11.930Z,944.73
2018-09-30T00:38:19.880Z,944.73
2018-09-30T00:39:27.963Z,944.74
2018-09-30T00:40:36.015Z,944.72
2018-09-30T00:41:44.161Z,944.69
2018-09-30T00:42:52.231Z,944.70
2018-09-30T00:44:00.203Z,944.69
2018-09-30T00:45:08.249Z,944.69
2018-09-30T00:46:16.317Z,944.64
2018-09-30T00:47:24.442Z,944.64
2018-09-30T00:48:32.422Z,944.65
2018-09-30T00:49:40.510Z,944.63
2018-09-30T00:50:48.566Z,944.60
2018-09-30T00:51:56.599Z,944.59
2018-09-30T00:53:04.790Z,944.57
2018-09-30T00:54:12.714Z,944.56
2018-09-30T00:55:20.799Z,944.53
2018-09-30T00:56:28.854Z,944.51
2018-09-30T00:57:37.016Z,944.52
2018-09-30T00:58:45.077Z,944.54
2018-09-30T00:59:53.013Z,944.54
2018-09-30T01:01:01.102Z,944.53
2018-09-30T01:02:09.156Z,944.51
2018-09-30T01:03:17.214Z,944.53
2018-09-30T01:04:25.376Z,944.56
2018-09-30T01:05:33.309Z,944.49
2018-09-30T01:06:41.386Z,944.48
2018-09-30T01:07:49.447Z,944.46
2018-09-30T01:08:57.520Z,944.42
2018-09-30T01:10:11.089Z,944.40
2018-09-30T01:11:13.648Z,944.44
2018-09-30T01:12:21.707Z,944.44
2018-09-30T01:13:29.764Z,944.42
2018-09-30T01:14:37.838Z,944.41
2018-09-30T01:15:45.993Z,944.42
2018-09-30T01:16:53.959Z,944.42
2018-09-30T01:18:02.022Z,944.35
2018-09-30T01:19:10.082Z,944.31
2018-09-30T01:20:18.139Z,944.36
2018-09-30T01:21:26.296Z,944.34
2018-09-30T01:22:34.262Z,944.37
2018-09-30T01:23:42.312Z,944.35
2018-09-30T01:24:50.383Z,944.33
2018-09-30T01:25:58.461Z,944.30
2018-09-30T01:27:06.604Z,944.33
2018-09-30T01:28:14.674Z,944.32
2018-09-30T01:29:22.633Z,944.31
2018-09-30T01:30:30.686Z,944.34
2018-09-30T01:31:38.760Z,944.36
2018-09-30T01:32:46.851Z,944.39
2018-09-30T01:33:54.873Z,944.32
2018-09-30T01:35:02.902Z,944.32
2018-09-30T01:36:10.987Z,944.35
2018-09-30T01:37:19.044Z,944.32
2018-09-30T01:38:27.108Z,944.31
2018-09-30T01:39:35.166Z,944.35
2018-09-30T01:40:43.221Z,944.33
2018-09-30T01:41:51.294Z,944.31
2018-09-30T01:42:59.455Z,944.32
2018-09-30T01:44:07.495Z,944.32
2018-09-30T01:45:15.475Z,944.31
2018-09-30T01:46:23.516Z,944.35
2018-09-30T01:47:31.674Z,944.35
2018-09-30T01:48:39.654Z,944.37
2018-09-30T01:49:47.707Z,944.36
2018-09-30T01:50:55.760Z,944.35
2018-09-30T01:52:03.824Z,944.36
2018-09-30T01:53:11.992Z,944.38
2018-09-30T01:54:19.959Z,944.33
2018-09-30T01:55:28.021Z,944.30
2018-09-30T01:56:36.082Z,944.29
2018-09-30T01:57:44.160Z,944.33
2018-09-30T01:58:52.305Z,944.33
2018-09-30T02:00:00.362Z,944.34
2018-09-30T02:01:08.329Z,944.32
2018-09-30T02:02:16.387Z,944.29
2018-09-30T02:03:24.501Z,944.31
2018-09-30T02:04:32.598Z,944.34
2018-09-30T02:05:40.555Z,944.32
2018-09-30T02:06:48.635Z,944.34
2018-09-30T02:07:56.690Z,944.36
2018-09-30T02:09:04.759Z,944.36
2018-09-30T02:10:12.887Z,944.37
2018-09-30T02:11:20.868Z,944.38
2018-09-30T02:12:28.942Z,944.42
2018-09-30T02:13:36.996Z,944.40
2018-09-30T02:14:45.059Z,944.45
2018-09-30T02:15:53.133Z,944.44
2018-09-30T02:17:01.179Z,944.40
2018-09-30T02:18:09.330Z,944.38
2018-09-30T02:19:17.301Z,944.36
2018-09-30T02:20:25.447Z,944.39
2018-09-30T02:21:33.402Z,944.32
2018-09-30T02:22:41.479Z,944.29
2018-09-30T02:23:49.547Z,944.27
2018-09-30T02:24:57.604Z,944.24
2018-09-30T02:26:05.764Z,944.24
2018-09-30T02:27:13.742Z,944.24
2018-09-30T02:28:21.793Z,944.28
2018-09-30T02:29:29.845Z,944.28
2018-09-30T02:30:37.899Z,944.31
2018-09-30T02:31:46.071Z,944.28
2018-09-30T02:32:54.123Z,944.30
2018-09-30T02:34:02.088Z,944.29
2018-09-30T02:35:10.156Z,944.32
2018-09-30T02:36:18.210Z,944.26
2018-09-30T02:37:26.375Z,944.29
2018-09-30T02:38:34.332Z,944.25
2018-09-30T02:39:42.399Z,944.23
2018-09-30T02:40:50.453Z,944.21
2018-09-30T02:41:58.559Z,944.17
2018-09-30T02:43:06.671Z,944.16
2018-09-30T02:44:14.642Z,944.11
2018-09-30T02:45:22.682Z,944.16
2018-09-30T02:46:30.758Z,944.16
2018-09-30T02:47:38.924Z,944.13
2018-09-30T02:48:46.884Z,944.11
2018-09-30T02:49:54.949Z,944.08
2018-09-30T02:51:02.978Z,944.12
2018-09-30T02:52:11.049Z,944.07
2018-09-30T02:53:19.213Z,944.12
2018-09-30T02:54:27.167Z,944.09
2018-09-30T02:55:35.235Z,944.10
2018-09-30T02:56:43.285Z,944.10
2018-09-30T02:57:51.365Z,944.07
2018-09-30T02:58:59.514Z,944.09
2018-09-30T03:00:07.476Z,944.07
2018-09-30T03:01:15.531Z,944.06
2018-09-30T03:02:23.601Z,944.06
2018-09-30T03:03:31.756Z,944.06
2018-09-30T03:04:39.817Z,944.08
2018-09-30T03:05:47.780Z,944.04
2018-09-30T03:06:55.852Z,944.04
2018-09-30T03:08:03.909Z,944.07
2018-09-30T03:09:11.997Z,944.03
2018-09-30T03:10:20.118Z,943.99
2018-09-30T03:11:28.098Z,944.01
2018-09-30T03:12:36.149Z,944.04
2018-09-30T03:13:44.193Z,944.00
2018-09-30T03:14:52.281Z,943.97
2018-09-30T03:16:00.469Z,943.97
2018-09-30T03:17:08.536Z,943.99
2018-09-30T03:18:16.452Z,943.95
2018-09-30T03:19:24.607Z,943.94
2018-09-30T03:20:32.555Z,943.95
2018-09-30T03:21:40.724Z,943.96
2018-09-30T03:22:48.685Z,943.91
2018-09-30T03:23:56.761Z,943.93
2018-09-30T03:25:04.812Z,943.92
2018-09-30T03:26:12.860Z,943.95
2018-09-30T03:27:21.032Z,943.94
2018-09-30T03:28:28.979Z,943.92
2018-09-30T03:29:37.038Z,943.89
2018-09-30T03:30:45.110Z,943.90
2018-09-30T03:31:53.153Z,943.92
2018-09-30T03:33:01.328Z,943.89
2018-09-30T03:34:09.287Z,943.88
2018-09-30T03:35:17.446Z,943.86
2018-09-30T03:36:25.401Z,943.86
2018-09-30T03:37:33.503Z,943.83
2018-09-30T03:38:41.561Z,943.83
2018-09-30T03:39:49.594Z,943.80
2018-09-30T03:40:57.646Z,943.77
2018-09-30T03:42:05.715Z,943.83
2018-09-30T03:43:13.863Z,943.82
2018-09-30T03:44:21.836Z,943.83
2018-09-30T03:45:29.900Z,943.83
2018-09-30T03:46:37.960Z,943.85
2018-09-30T03:47:46.119Z,943.81
2018-09-30T03:48:54.073Z,943.82
2018-09-30T03:50:02.124Z,943.81
2018-09-30T03:51:10.286Z,943.77
2018-09-30T03:52:18.248Z,943.75
2018-09-30T03:53:26.395Z,943.73
2018-09-30T03:54:34.372Z,943.73
2018-09-30T03:55:42.413Z,943.68
2018-09-30T03:56:50.555Z,943.70
2018-09-30T03:57:58.544Z,943.70
2018-09-30T03:59:06.712Z,943.68
2018-09-30T04:00:14.668Z,943.72
2018-09-30T04:01:22.705Z,943.67
2018-09-30T04:02:30.784Z,943.63
2018-09-30T04:03:38.850Z,943.65
2018-09-30T04:04:46.992Z,943.61
2018-09-30T04:05:54.970Z,943.67
2018-09-30T04:07:03.059Z,943.65
2018-09-30T04:08:11.066Z,943.65
2018-09-30T04:09:19.148Z,943.61
2018-09-30T04:10:27.300Z,943.66
2018-09-30T04:11:35.273Z,943.60
2018-09-30T04:12:43.307Z,943.61
2018-09-30T04:13:51.384Z,943.59
2018-09-30T04:14:59.459Z,943.58
2018-09-30T04:16:07.608Z,943.54
2018-09-30T04:17:15.616Z,943.56
2018-09-30T04:18:23.628Z,943.54
2018-09-30T04:19:31.691Z,943.53
2018-09-30T04:20:39.744Z,943.54
2018-09-30T04:21:47.894Z,943.53
2018-09-30T04:22:55.967Z,943.55
2018-09-30T04:24:03.931Z,943.51
2018-09-30T04:25:11.981Z,943.47
2018-09-30T04:26:20.040Z,943.45
2018-09-30T04:27:28.147Z,943.44
2018-09-30T04:28:36.154Z,943.44
2018-09-30T04:29:44.214Z,943.43
2018-09-30T04:30:52.283Z,943.46
2018-09-30T04:32:00.362Z,943.45
2018-09-30T04:33:08.456Z,943.45
2018-09-30T04:34:16.467Z,943.45
2018-09-30T04:35:24.536Z,943.46
2018-09-30T04:36:32.564Z,943.44
2018-09-30T04:37:40.711Z,943.44
2018-09-30T04:38:48.719Z,943.46
2018-09-30T04:39:56.760Z,943.42
2018-09-30T04:41:04.829Z,943.46
2018-09-30T04:42:12.859Z,943.43
2018-09-30T04:43:21.026Z,943.44
2018-09-30T04:44:28.997Z,943.41
2018-09-30T04:45:37.085Z,943.36
2018-09-30T04:46:45.118Z,943.37
2018-09-30T04:47:53.149Z,943.40
2018-09-30T04:49:01.288Z,943.37
2018-09-30T04:50:09.392Z,943.36
2018-09-30T04:51:17.350Z,943.37
2018-09-30T04:52:25.396Z,943.33
2018-09-30T04:53:33.456Z,943.34
2018-09-30T04:54:42.367Z,943.34
2018-09-30T04:55:49.578Z,943.34
2018-09-30T04:56:57.660Z,943.37
2018-09-30T04:58:05.732Z,943.40
2018-09-30T04:59:13.774Z,943.38
2018-09-30T05:00:21.925Z,943.37
2018-09-30T05:01:29.928Z,943.35
2018-09-30T05:02:37.949Z,943.33
2018-09-30T05:03:46.043Z,943.32
2018-09-30T05:04:54.073Z,943.31
2018-09-30T05:06:02.231Z,943.29
2018-09-30T05:07:10.182Z,943.29
2018-09-30T05:08:18.338Z,943.26
2018-09-30T05:09:26.324Z,943.27
2018-09-30T05:10:34.363Z,943.28
2018-09-30T05:11:42.520Z,943.28
2018-09-30T05:12:50.606Z,943.26
2018-09-30T05:13:58.539Z,943.28
2018-09-30T05:15:06.623Z,943.27
2018-09-30T05:16:14.683Z,943.26
2018-09-30T05:17:22.792Z,943.28
2018-09-30T05:18:30.794Z,943.27
2018-09-30T05:19:38.857Z,943.35
2018-09-30T05:20:46.913Z,943.32
2018-09-30T05:21:54.966Z,943.29
2018-09-30T05:23:03.051Z,943.29
2018-09-30T05:24:11.192Z,943.26
2018-09-30T05:25:19.149Z,943.33
2018-09-30T05:26:27.206Z,943.29
2018-09-30T05:27:35.365Z,943.33
2018-09-30T05:28:43.315Z,943.30
2018-09-30T05:29:51.396Z,943.37
2018-09-30T05:30:59.433Z,943.35
2018-09-30T05:32:07.500Z,943.34
2018-09-30T05:33:15.677Z,943.33
2018-09-30T05:34:23.620Z,943.36
2018-09-30T05:35:31.697Z,943.31
2018-09-30T05:36:39.752Z,943.34
2018-09-30T05:37:47.896Z,943.30
2018-09-30T05:38:55.851Z,943.34
2018-09-30T05:40:04.027Z,943.34
2018-09-30T05:41:11.982Z,943.38
2018-09-30T05:42:20.063Z,943.35
2018-09-30T05:43:28.107Z,943.39
2018-09-30T05:44:36.176Z,943.39
2018-09-30T05:45:44.225Z,943.39
2018-09-30T05:46:52.303Z,943.41
2018-09-30T05:48:00.459Z,943.40
2018-09-30T05:49:08.411Z,943.37
2018-09-30T05:50:16.461Z,943.40
2018-09-30T05:51:24.532Z,943.43
2018-09-30T05:52:32.693Z,943.42
2018-09-30T05:53:40.661Z,943.43
2018-09-30T05:54:48.857Z,943.48
2018-09-30T05:55:56.773Z,943.45
2018-09-30T05:57:04.840Z,943.51
2018-09-30T05:58:12.919Z,943.50
2018-09-30T05:59:20.948Z,943.46
2018-09-30T06:00:29.006Z,943.46
2018-09-30T06:01:37.076Z,943.44
2018-09-30T06:02:45.233Z,943.49
2018-09-30T06:03:53.193Z,943.47
2018-09-30T06:05:01.254Z,943.46
2018-09-30T06:06:09.307Z,943.48
2018-09-30T06:07:17.382Z,943.47
2018-09-30T06:08:25.523Z,943.49
2018-09-30T06:09:33.514Z,943.49
2018-09-30T06:10:41.639Z,943.49
2018-09-30T06:11:49.622Z,943.48
2018-09-30T06:12:57.686Z,943.49
2018-09-30T06:14:05.933Z,943.47
2018-09-30T06:15:13.793Z,943.46
2018-09-30T06:16:21.973Z,943.45
2018-09-30T06:17:29.925Z,943.45
2018-09-30T06:18:38.000Z,943.48
2018-09-30T06:19:46.134Z,943.51
2018-09-30T06:20:54.100Z,943.47
2018-09-30T06:22:02.156Z,943.46
2018-09-30T06:23:10.220Z,943.51
2018-09-30T06:24:18.283Z,943.47
2018-09-30T06:25:26.480Z,943.48
2018-09-30T06:26:34.499Z,943.50
2018-09-30T06:27:42.459Z,943.52
2018-09-30T06:28:50.534Z,943.48
2018-09-30T06:29:58.580Z,943.50
2018-09-30T06:31:06.736Z,943.53
2018-09-30T06:32:14.767Z,943.58
2018-09-30T06:33:22.737Z,943.64
2018-09-30T06:34:30.835Z,943.63
2018-09-30T06:35:38.888Z,943.54
2018-09-30T06:36:47.073Z,943.56
2018-09-30T06:37:55.012Z,943.60
2018-09-30T06:39:03.047Z,943.69
2018-09-30T06:40:11.160Z,943.63
2018-09-30T06:41:19.208Z,943.64
2018-09-30T06:42:27.362Z,943.64
2018-09-30T06:43:39.404Z,943.64
2018-09-30T06:44:43.373Z,943.69
2018-09-30T06:45:51.503Z,943.69
2018-09-30T06:46:59.493Z,943.63
2018-09-30T06:48:07.658Z,943.66
2018-09-30T06:49:15.784Z,943.67
2018-09-30T06:50:23.680Z,943.64
2018-09-30T06:51:32.736Z,943.64
2018-09-30T06:52:39.894Z,943.64
2018-09-30T06:53:50.082Z,943.63
2018-09-30T06:54:59.342Z,943.67
2018-09-30T06:56:08.804Z,943.70
2018-09-30T06:57:16.657Z,943.70
2018-09-30T06:58:24.821Z,943.66
2018-09-30T06:59:32.767Z,943.75
2018-09-30T07:00:40.848Z,943.86
2018-09-30T07:01:48.903Z,943.86
2018-09-30T07:04:10.278Z,943.83
2018-09-30T07:05:19.354Z,943.99
2018-09-30T07:06:27.013Z,944.29
2018-09-30T07:07:35.155Z,944.49
2018-09-30T07:08:43.109Z,945.00
2018-09-30T07:09:51.201Z,945.38
2018-09-30T07:10:59.339Z,946.55
2018-09-30T07:12:07.349Z,947.33
2018-09-30T07:13:15.481Z,947.92
2018-09-30T07:14:23.432Z,949.05
2018-09-30T07:15:31.507Z,949.23
2018-09-30T07:16:39.623Z,949.62
2018-09-30T07:17:47.634Z,950.65
2018-09-30T07:18:55.818Z,951.36
2018-09-30T07:20:03.961Z,950.19
2018-09-30T07:21:12.040Z,950.76
2018-09-30T07:22:20.393Z,953.03
2018-09-30T07:23:28.244Z,953.44
2018-09-30T07:24:36.125Z,952.53
2018-09-30T07:25:44.091Z,951.87
2018-09-30T07:26:52.158Z,951.77
2018-09-30T07:28:00.305Z,951.64
2018-09-30T07:29:08.281Z,951.69
2018-09-30T07:30:16.447Z,952.39
2018-09-30T07:31:24.420Z,952.60
2018-09-30T07:32:32.488Z,950.60
2018-09-30T07:33:40.599Z,949.76
2018-09-30T07:34:48.628Z,950.23
2018-09-30T07:35:56.812Z,950.10
2018-09-30T07:37:04.762Z,950.73
2018-09-30T07:38:12.837Z,950.67
2018-09-30T07:39:21.547Z,949.62
2018-09-30T07:40:28.964Z,949.39
2018-09-30T07:41:37.596Z,949.85
2018-09-30T07:42:45.742Z,949.21
2018-09-30T07:43:53.514Z,947.18
2018-09-30T07:45:01.252Z,944.64
2018-09-30T07:46:09.952Z,944.11
2018-09-30T07:47:18.106Z,945.53
2018-09-30T07:48:25.449Z,946.95
2018-09-30T07:49:33.501Z,947.23
2018-09-30T07:50:41.584Z,946.40
2018-09-30T07:51:49.936Z,945.33
2018-09-30T07:52:58.863Z,944.90
2018-09-30T07:54:06.499Z,944.84
2018-09-30T07:55:13.848Z,944.16
2018-09-30T07:56:22.590Z,944.02
2018-09-30T07:57:30.094Z,943.88
2018-09-30T07:58:38.171Z,943.66
2018-09-30T07:59:46.777Z,943.74
2018-09-30T08:00:54.194Z,943.90
2018-09-30T08:02:02.854Z,943.89
2018-09-30T08:03:10.431Z,943.87
2018-09-30T08:04:18.398Z,943.71
2018-09-30T08:05:26.460Z,943.92
2018-09-30T08:06:35.234Z,943.96
2018-09-30T08:07:42.586Z,943.74
2018-09-30T08:08:50.817Z,943.84
2018-09-30T08:09:59.105Z,943.78
2018-09-30T08:11:06.804Z,943.63
2018-09-30T08:12:14.998Z,943.56
2018-09-30T08:13:22.992Z,943.57
2018-09-30T08:14:31.698Z,943.59
2018-09-30T08:15:39.570Z,943.59
2018-09-30T08:16:47.196Z,943.56
2018-09-30T08:17:55.781Z,943.60
2018-09-30T08:19:03.576Z,943.61
2018-09-30T08:20:11.433Z,943.59
2018-09-30T08:21:19.388Z,943.55
2018-09-30T08:22:27.462Z,943.54
2018-09-30T08:23:35.545Z,943.56
2018-09-30T08:24:43.697Z,943.59
2018-09-30T08:25:52.144Z,943.57
2018-09-30T08:26:59.743Z,943.54
2018-09-30T08:28:07.797Z,943.52
2018-09-30T08:29:15.872Z,943.48
2018-09-30T08:30:24.136Z,943.54
2018-09-30T08:31:32.005Z,943.51
2018-09-30T08:32:40.056Z,943.52
2018-09-30T08:33:48.139Z,943.50
2018-09-30T08:34:56.856Z,943.46
2018-09-30T08:36:04.353Z,943.49
2018-09-30T08:37:12.421Z,943.51
2018-09-30T08:38:20.395Z,943.49
2018-09-30T08:39:28.518Z,943.55
2018-09-30T08:40:36.540Z,943.52
2018-09-30T08:41:44.700Z,943.54
2018-09-30T08:42:52.680Z,943.51
2018-09-30T08:44:00.746Z,943.51
2018-09-30T08:45:08.814Z,943.53
2018-09-30T08:46:16.949Z,943.58
2018-09-30T08:47:25.142Z,943.57
2018-09-30T08:48:32.978Z,943.54
2018-09-30T08:49:41.079Z,943.56
2018-09-30T08:50:49.115Z,943.56
2018-09-30T08:51:57.196Z,943.56
2018-09-30T08:53:05.346Z,943.59
2018-09-30T08:54:13.302Z,943.58
2018-09-30T08:55:21.403Z,943.59
2018-09-30T08:56:29.455Z,943.60
2018-09-30T08:57:37.582Z,943.59
2018-09-30T08:58:45.583Z,943.62
2018-09-30T08:59:53.648Z,943.55
2018-09-30T09:01:01.733Z,943.59
2018-09-30T09:02:09.910Z,943.60
2018-09-30T09:03:17.948Z,943.57
2018-09-30T09:04:25.925Z,943.55
2018-09-30T09:05:33.987Z,943.53
2018-09-30T09:06:42.047Z,943.51
2018-09-30T09:07:50.206Z,943.50
2018-09-30T09:08:58.329Z,943.56
2018-09-30T09:10:06.264Z,943.54
2018-09-30T09:11:14.317Z,943.54
2018-09-30T09:12:22.386Z,943.51
2018-09-30T09:13:30.442Z,943.54
2018-09-30T09:14:38.520Z,943.54
2018-09-30T09:15:46.593Z,943.51
2018-09-30T09:16:54.642Z,943.51
2018-09-30T09:18:02.794Z,943.52
2018-09-30T09:19:10.784Z,943.54
2018-09-30T09:20:18.843Z,943.48
2018-09-30T09:21:26.912Z,943.52
2018-09-30T09:22:34.999Z,943.54
2018-09-30T09:23:43.121Z,943.56
2018-09-30T09:24:51.113Z,943.50
2018-09-30T09:25:59.178Z,943.51
2018-09-30T09:27:07.240Z,943.50
2018-09-30T09:28:15.316Z,943.47
2018-09-30T09:29:23.432Z,943.50
2018-09-30T09:30:31.465Z,943.51
2018-09-30T09:31:39.563Z,943.46
2018-09-30T09:32:47.675Z,943.47
2018-09-30T09:33:55.639Z,943.45
2018-09-30T09:35:03.870Z,943.46
2018-09-30T09:36:11.780Z,943.40
2018-09-30T09:37:19.841Z,943.40
2018-09-30T09:38:27.946Z,943.42
2018-09-30T09:39:35.969Z,943.41
2018-09-30T09:40:44.136Z,943.43
2018-09-30T09:41:52.107Z,943.42
2018-09-30T09:43:00.177Z,943.45
2018-09-30T09:44:08.243Z,943.43
2018-09-30T09:45:16.427Z,943.41
2018-09-30T09:46:24.375Z,943.41
2018-09-30T09:47:32.529Z,943.41
2018-09-30T09:48:40.519Z,943.41
2018-09-30T09:49:48.591Z,943.35
2018-09-30T09:50:56.752Z,943.33
2018-09-30T09:52:04.717Z,943.35
2018-09-30T09:53:12.753Z,943.36
2018-09-30T09:54:20.845Z,943.27
2018-09-30T09:55:28.912Z,943.32
2018-09-30T09:56:37.062Z,943.32
2018-09-30T09:57:45.049Z,943.26
2018-09-30T09:58:53.180Z,943.30
2018-09-30T10:00:01.178Z,943.28
2018-09-30T10:01:09.254Z,943.25
2018-09-30T10:02:17.412Z,943.25
2018-09-30T10:03:25.475Z,943.28
2018-09-30T10:04:33.440Z,943.23
2018-09-30T10:05:41.532Z,943.21
2018-09-30T10:06:49.590Z,943.18
2018-09-30T10:07:57.746Z,943.14
2018-09-30T10:09:05.731Z,943.18
2018-09-30T10:10:13.790Z,943.14
2018-09-30T10:11:21.984Z,943.17
2018-09-30T10:12:29.971Z,943.15
2018-09-30T10:13:37.977Z,943.14
2018-09-30T10:14:46.065Z,943.15
2018-09-30T10:15:54.127Z,943.14
2018-09-30T10:17:02.193Z,943.11
2018-09-30T10:18:10.364Z,943.15
2018-09-30T10:19:18.341Z,943.11
2018-09-30T10:20:26.436Z,943.09
2018-09-30T10:21:34.455Z,943.09
2018-09-30T10:22:42.647Z,943.08
2018-09-30T10:23:50.619Z,943.09
2018-09-30T10:24:58.672Z,943.06
2018-09-30T10:26:06.733Z,943.09
2018-09-30T10:27:14.808Z,943.06
2018-09-30T10:28:22.940Z,943.06
2018-09-30T10:29:30.937Z,943.07
2018-09-30T10:30:39.013Z,943.00
2018-09-30T10:31:47.077Z,943.02
2018-09-30T10:32:55.249Z,942.98
2018-09-30T10:34:03.249Z,942.99
2018-09-30T10:35:11.296Z,942.96
2018-09-30T10:36:19.346Z,942.94
2018-09-30T10:37:27.424Z,942.92
2018-09-30T10:38:35.611Z,942.93
2018-09-30T10:39:43.658Z,942.94
2018-09-30T10:40:51.635Z,942.91
2018-09-30T10:41:59.703Z,942.91
2018-09-30T10:43:07.763Z,942.93
2018-09-30T10:44:15.837Z,942.83
2018-09-30T10:45:24.001Z,942.84
2018-09-30T10:46:31.955Z,942.86
2018-09-30T10:47:40.032Z,942.82
2018-09-30T10:48:48.206Z,942.83
2018-09-30T10:49:56.164Z,942.78
2018-09-30T10:51:04.329Z,942.80
2018-09-30T10:52:12.309Z,942.78
2018-09-30T10:53:20.374Z,942.75
2018-09-30T10:54:28.439Z,942.72
2018-09-30T10:55:36.515Z,942.69
2018-09-30T10:56:44.734Z,942.65
2018-09-30T10:57:52.647Z,942.65
2018-09-30T11:00:13.014Z,942.58
2018-09-30T11:01:21.075Z,942.58
2018-09-30T11:02:29.255Z,942.57
2018-09-30T11:03:37.296Z,942.56
2018-09-30T11:04:45.449Z,942.57
2018-09-30T11:05:53.329Z,942.52
2018-09-30T11:07:01.439Z,942.51
2018-09-30T11:08:09.585Z,942.53
2018-09-30T11:09:17.569Z,942.51
2018-09-30T11:10:25.641Z,942.46
2018-09-30T11:11:33.705Z,942.46
2018-09-30T11:12:42.008Z,942.42
2018-09-30T11:13:49.981Z,942.36
2018-09-30T11:14:57.932Z,942.40
2018-09-30T11:16:05.989Z,942.40
2018-09-30T11:17:14.064Z,942.32
2018-09-30T11:18:22.228Z,942.30
2018-09-30T11:19:30.197Z,942.29
2018-09-30T11:20:38.344Z,942.27
2018-09-30T11:21:46.327Z,942.28
2018-09-30T11:22:54.408Z,942.24
2018-09-30T11:24:02.543Z,942.23
2018-09-30T11:25:12.140Z,942.23
2018-09-30T11:26:20.215Z,942.23
2018-09-30T11:27:28.289Z,942.22
2018-09-30T11:28:36.362Z,942.20
2018-09-30T11:29:44.518Z,942.20
2018-09-30T11:30:52.478Z,942.17
2018-09-30T11:32:00.561Z,942.14
2018-09-30T11:33:08.622Z,942.12
2018-09-30T11:34:16.693Z,942.15
2018-09-30T11:35:24.859Z,942.13
2018-09-30T11:36:34.928Z,942.12
2018-09-30T11:37:42.893Z,942.05
2018-09-30T11:38:50.973Z,942.01
2018-09-30T11:39:59.048Z,942.04
2018-09-30T11:41:07.216Z,942.02
2018-09-30T11:42:15.173Z,942.02
2018-09-30T11:43:23.221Z,941.94
2018-09-30T11:44:31.334Z,941.95
2018-09-30T11:45:39.400Z,941.95
2018-09-30T11:46:47.556Z,941.89
2018-09-30T11:47:55.523Z,941.89
2018-09-30T11:49:03.588Z,941.86
2018-09-30T11:50:11.667Z,941.85
2018-09-30T11:51:19.733Z,941.86
2018-09-30T11:52:27.950Z,941.83
2018-09-30T11:56:00.274Z,941.86
2018-09-30T11:57:08.356Z,941.79
2018-09-30T11:58:16.532Z,941.75
2018-09-30T11:59:24.490Z,941.74
2018-09-30T12:00:32.555Z,941.74
2018-09-30T12:01:40.640Z,941.69
2018-09-30T12:02:51.199Z,941.69
2018-09-30T12:04:01.397Z,941.68
2018-09-30T12:05:09.457Z,941.66
2018-09-30T12:06:17.535Z,941.64
2018-09-30T12:07:25.592Z,941.65
2018-09-30T12:08:33.655Z,941.61
2018-09-30T12:09:41.749Z,941.58
2018-09-30T12:10:49.814Z,941.57
2018-09-30T12:11:57.891Z,941.54
2018-09-30T12:13:06.254Z,941.53
2018-09-30T12:14:14.214Z,941.53
2018-09-30T12:15:24.098Z,941.52
2018-09-30T12:16:32.149Z,941.51
2018-09-30T12:17:40.239Z,941.50
2018-09-30T12:18:48.475Z,941.49
2018-09-30T12:19:56.375Z,941.49
2018-09-30T12:21:04.450Z,941.45
2018-09-30T12:22:12.492Z,941.45
2018-09-30T12:23:20.623Z,941.40
2018-09-30T12:24:28.748Z,941.37
2018-09-30T12:25:36.789Z,941.39
2018-09-30T12:26:44.783Z,941.39
2018-09-30T12:27:52.836Z,941.35
2018-09-30T12:29:00.933Z,941.32
2018-09-30T12:31:19.703Z,941.29
2018-09-30T12:32:27.762Z,941.27
2018-09-30T12:33:35.840Z,941.29
2018-09-30T12:34:43.891Z,941.28
2018-09-30T12:35:52.050Z,941.25
2018-09-30T12:37:00.032Z,941.22
2018-09-30T12:38:08.200Z,941.23
2018-09-30T12:39:16.219Z,941.24
2018-09-30T12:40:24.248Z,941.18
2018-09-30T12:41:32.412Z,941.20
2018-09-30T12:42:41.575Z,941.21
2018-09-30T12:43:49.665Z,941.19
2018-09-30T12:44:57.732Z,941.20
2018-09-30T12:46:05.802Z,941.21
2018-09-30T12:47:13.987Z,941.17
2018-09-30T12:48:21.936Z,941.18
2018-09-30T12:49:30.008Z,941.15
2018-09-30T12:50:38.071Z,941.13
2018-09-30T12:51:46.147Z,941.16
2018-09-30T12:52:54.308Z,941.12
2018-09-30T12:54:02.279Z,941.13
2018-09-30T12:55:10.347Z,941.12
2018-09-30T12:56:18.418Z,941.10
2018-09-30T12:57:26.496Z,941.09
2018-09-30T12:58:34.618Z,941.10
2018-09-30T12:59:42.627Z,941.06
2018-09-30T13:00:50.715Z,941.06
2018-09-30T13:01:58.776Z,941.06
2018-09-30T13:04:17.752Z,941.05
2018-09-30T13:05:25.818Z,941.09
2018-09-30T13:06:33.906Z,941.03
2018-09-30T13:07:42.049Z,941.10
2018-09-30T13:08:50.165Z,941.02
2018-09-30T13:09:58.097Z,941.02
2018-09-30T13:11:06.150Z,941.02
2018-09-30T13:12:14.232Z,941.02
2018-09-30T13:13:22.398Z,940.99
2018-09-30T13:14:30.370Z,940.98
2018-09-30T13:15:38.455Z,940.96
2018-09-30T13:16:46.529Z,940.99
2018-09-30T13:17:54.588Z,940.95
2018-09-30T13:19:02.738Z,940.94
2018-09-30T13:20:10.723Z,940.91
2018-09-30T13:21:18.793Z,940.88
2018-09-30T13:22:26.861Z,940.90
2018-09-30T13:23:34.931Z,940.87
2018-09-30T13:24:43.086Z,940.86
2018-09-30T13:25:51.085Z,940.88
2018-09-30T13:26:59.148Z,940.80
2018-09-30T13:28:07.228Z,940.80
2018-09-30T13:29:15.285Z,940.80
2018-09-30T13:30:23.449Z,940.78
2018-09-30T13:31:31.423Z,940.74
2018-09-30T13:32:39.519Z,940.72
2018-09-30T13:33:47.578Z,940.73
2018-09-30T13:34:55.632Z,940.73
2018-09-30T13:36:03.814Z,940.78
2018-09-30T13:37:11.789Z,940.73
2018-09-30T13:38:19.941Z,940.69
2018-09-30T13:39:27.943Z,940.70
2018-09-30T13:40:36.105Z,940.68
2018-09-30T13:41:44.157Z,940.65
2018-09-30T13:42:52.132Z,940.65
2018-09-30T13:44:00.191Z,940.62
2018-09-30T13:45:08.271Z,940.60
2018-09-30T13:46:16.403Z,940.64
2018-09-30T13:47:24.502Z,940.59
2018-09-30T13:48:32.466Z,940.61
2018-09-30T13:49:40.550Z,940.57
2018-09-30T13:50:48.622Z,940.58
2018-09-30T13:51:56.699Z,940.56
2018-09-30T13:53:04.807Z,940.52
2018-09-30T13:54:12.902Z,940.51
2018-09-30T13:55:20.900Z,940.46
2018-09-30T13:56:28.959Z,940.50
2018-09-30T13:57:37.085Z,940.49
2018-09-30T13:58:45.105Z,940.53
2018-09-30T13:59:53.154Z,940.53
2018-09-30T14:01:01.252Z,940.54
2018-09-30T14:02:09.325Z,940.50
2018-09-30T14:03:17.489Z,940.50
2018-09-30T14:04:25.474Z,940.46
2018-09-30T14:05:33.549Z,940.45
2018-09-30T14:06:41.614Z,940.43
2018-09-30T14:07:49.670Z,940.46
2018-09-30T14:08:57.850Z,940.46
2018-09-30T14:10:05.921Z,940.41
2018-09-30T14:11:13.882Z,940.40
2018-09-30T14:12:22.092Z,940.40
2018-09-30T14:13:30.037Z,940.39
2018-09-30T14:14:38.188Z,940.35
2018-09-30T14:15:46.173Z,940.35
2018-09-30T14:16:54.238Z,940.31